createdAt,value
2023-02-09T00:01:41.177Z,-8.17
2023-02-09T00:04:09.586Z,-8.32
2023-02-09T00:06:37.474Z,-8.34
2023-02-09T00:09:05.575Z,-8.32
2023-02-09T00:11:52.276Z,-8.33
2023-02-09T00:14:22.068Z,-8.33
2023-02-09T00:16:51.582Z,-8.33
2023-02-09T00:19:21.082Z,-8.34
2023-02-09T00:21:49.297Z,-8.35
2023-02-09T00:24:17.191Z,-8.37
2023-02-09T00:26:45.118Z,-8.39
2023-02-09T00:29:13.659Z,-8.40
2023-02-09T00:31:43.540Z,-8.40
2023-02-09T00:34:14.472Z,-8.40
2023-02-09T00:36:42.416Z,-8.41
2023-02-09T00:39:10.529Z,-8.41
2023-02-09T00:41:57.253Z,-8.41
2023-02-09T00:44:25.304Z,-8.42
2023-02-09T00:46:53.449Z,-8.43
2023-02-09T00:49:21.519Z,-8.42
2023-02-09T00:51:49.477Z,-8.45
2023-02-09T00:54:17.576Z,-8.50
2023-02-09T00:56:46.954Z,-8.57
2023-02-09T00:59:15.558Z,-8.64
2023-02-09T01:01:43.602Z,-8.64
2023-02-09T01:04:11.627Z,-8.64
2023-02-09T01:06:39.748Z,-8.66
2023-02-09T01:09:07.815Z,-8.68
2023-02-09T01:11:35.830Z,-8.71
2023-02-09T01:14:04.728Z,-8.75
2023-02-09T01:16:33.099Z,-8.80
2023-02-09T01:19:02.751Z,-8.85
2023-02-09T01:21:31.155Z,-8.86
2023-02-09T01:23:59.628Z,-8.87
2023-02-09T01:26:27.939Z,-8.92
2023-02-09T01:28:56.286Z,-9.00
2023-02-09T01:31:25.950Z,-9.06
2023-02-09T01:33:55.772Z,-9.05
2023-02-09T01:36:23.883Z,-9.06
2023-02-09T01:38:54.929Z,-9.07
2023-02-09T01:41:24.148Z,-9.09
2023-02-09T01:44:02.702Z,-9.11
2023-02-09T01:46:35.779Z,-9.13
2023-02-09T01:49:26.941Z,-9.13
2023-02-09T01:52:03.602Z,-9.16
2023-02-09T01:54:39.147Z,-9.18
2023-02-09T01:57:12.388Z,-9.18
2023-02-09T01:59:44.348Z,-9.19
2023-02-09T02:02:12.812Z,-9.20
2023-02-09T02:04:44.309Z,-9.28
2023-02-09T02:07:33.425Z,-9.33
2023-02-09T02:10:03.040Z,-9.41
2023-02-09T02:12:32.739Z,-9.43
2023-02-09T02:15:00.748Z,-9.41
2023-02-09T02:17:47.664Z,-9.40
2023-02-09T02:20:37.531Z,-9.37
2023-02-09T02:23:32.495Z,-9.34
2023-02-09T02:26:21.603Z,-9.35
2023-02-09T02:28:58.557Z,-9.37
2023-02-09T02:31:55.180Z,-9.39
2023-02-09T02:34:53.354Z,-9.39
2023-02-09T02:37:27.248Z,-9.39
2023-02-09T02:40:02.825Z,-9.44
2023-02-09T02:42:51.768Z,-9.48
2023-02-09T02:45:48.436Z,-9.50
2023-02-09T02:48:38.358Z,-9.52
2023-02-09T02:51:11.717Z,-9.56
2023-02-09T02:53:43.561Z,-9.59
2023-02-09T02:56:20.926Z,-9.60
2023-02-09T02:58:52.259Z,-9.63
2023-02-09T03:01:24.868Z,-9.66
2023-02-09T03:03:54.798Z,-9.68
2023-02-09T03:06:22.797Z,-9.79
2023-02-09T03:08:57.283Z,-9.83
2023-02-09T03:11:32.309Z,-9.83
2023-02-09T03:14:12.974Z,-9.84
2023-02-09T03:17:16.605Z,-9.85
2023-02-09T03:20:08.669Z,-9.92
2023-02-09T03:22:36.589Z,-10.04
2023-02-09T03:25:10.605Z,-10.14
2023-02-09T03:28:08.582Z,-10.25
2023-02-09T03:30:42.269Z,-10.35
2023-02-09T03:33:29.682Z,-10.37
2023-02-09T03:36:01.403Z,-10.38
2023-02-09T03:38:29.727Z,-10.41
2023-02-09T03:40:57.706Z,-10.42
2023-02-09T03:43:45.541Z,-10.41
2023-02-09T03:46:13.569Z,-10.40
2023-02-09T03:48:41.529Z,-10.40
2023-02-09T03:51:09.503Z,-10.40
2023-02-09T03:53:38.212Z,-10.41
2023-02-09T03:56:10.041Z,-10.44
2023-02-09T03:58:37.967Z,-10.48
2023-02-09T04:01:08.482Z,-10.50
2023-02-09T04:03:37.687Z,-10.50
2023-02-09T04:06:06.174Z,-10.52
2023-02-09T04:08:34.342Z,-10.54
2023-02-09T04:11:02.401Z,-10.63
2023-02-09T04:13:30.320Z,-10.70
2023-02-09T04:15:58.249Z,-10.76
2023-02-09T04:18:26.367Z,-10.79
2023-02-09T04:20:54.331Z,-10.78
2023-02-09T04:23:22.508Z,-10.78
2023-02-09T04:25:53.482Z,-10.79
2023-02-09T04:28:21.594Z,-10.83
2023-02-09T04:30:54.622Z,-10.82
2023-02-09T04:33:24.410Z,-10.83
2023-02-09T04:35:53.553Z,-10.90
2023-02-09T04:38:22.593Z,-11.00
2023-02-09T04:40:52.506Z,-11.05
2023-02-09T04:43:20.987Z,-11.04
2023-02-09T04:45:49.164Z,-11.06
2023-02-09T04:48:20.230Z,-11.09
2023-02-09T04:50:48.286Z,-11.13
2023-02-09T04:53:16.579Z,-11.15
2023-02-09T04:55:46.446Z,-11.13
2023-02-09T04:58:38.143Z,-11.09
2023-02-09T05:01:07.622Z,-11.06
2023-02-09T05:03:35.789Z,-11.05
2023-02-09T05:06:05.288Z,-11.01
2023-02-09T05:08:33.442Z,-10.97
2023-02-09T05:11:02.289Z,-10.93
2023-02-09T05:13:30.487Z,-10.92
2023-02-09T05:15:58.856Z,-10.93
2023-02-09T05:18:27.094Z,-10.98
2023-02-09T05:20:55.367Z,-11.04
2023-02-09T05:23:23.432Z,-11.08
2023-02-09T05:25:51.760Z,-11.13
2023-02-09T05:28:19.928Z,-11.17
2023-02-09T05:30:53.781Z,-11.20
2023-02-09T05:33:24.344Z,-11.20
2023-02-09T05:35:54.011Z,-11.20
2023-02-09T05:38:22.744Z,-11.19
2023-02-09T05:40:51.149Z,-11.16
2023-02-09T05:43:19.484Z,-11.13
2023-02-09T05:45:47.688Z,-11.10
2023-02-09T05:48:15.913Z,-11.07
2023-02-09T05:50:44.367Z,-11.05
2023-02-09T05:53:14.433Z,-11.03
2023-02-09T05:55:44.674Z,-10.98
2023-02-09T05:58:13.068Z,-10.96
2023-02-09T06:00:41.308Z,-10.95
2023-02-09T06:03:09.472Z,-10.97
2023-02-09T06:05:37.758Z,-10.95
2023-02-09T06:08:06.428Z,-10.95
2023-02-09T06:10:34.791Z,-10.95
2023-02-09T06:13:03.256Z,-10.93
2023-02-09T06:15:31.467Z,-10.81
2023-02-09T06:18:00.008Z,-10.61
2023-02-09T06:20:28.368Z,-10.31
2023-02-09T06:22:56.395Z,-9.99
2023-02-09T06:25:24.578Z,-9.73
2023-02-09T06:27:52.792Z,-9.58
2023-02-09T06:30:21.280Z,-9.53
2023-02-09T06:32:49.421Z,-9.44
2023-02-09T06:35:17.799Z,-9.27
2023-02-09T06:37:46.208Z,-8.91
2023-02-09T06:40:14.561Z,-8.52
2023-02-09T06:42:45.570Z,-8.16
2023-02-09T06:45:16.427Z,-7.82
2023-02-09T06:47:46.355Z,-7.48
2023-02-09T06:50:17.307Z,-7.21
2023-02-09T06:52:47.023Z,-7.03
2023-02-09T06:55:15.677Z,-6.87
2023-02-09T06:57:44.081Z,-6.69
2023-02-09T07:00:13.963Z,-6.62
2023-02-09T07:02:44.089Z,-6.77
2023-02-09T07:05:14.466Z,-6.97
2023-02-09T07:07:44.256Z,-7.15
2023-02-09T07:10:15.612Z,-7.29
2023-02-09T07:12:43.925Z,-7.49
2023-02-09T07:15:15.085Z,-7.62
2023-02-09T07:17:44.420Z,-7.60
2023-02-09T07:20:13.074Z,-7.48
2023-02-09T07:22:41.466Z,-7.45
2023-02-09T07:25:09.994Z,-7.34
2023-02-09T07:27:38.188Z,-7.25
2023-02-09T07:30:06.962Z,-7.11
2023-02-09T07:32:38.445Z,-6.93
2023-02-09T07:35:07.200Z,-6.79
2023-02-09T07:37:36.234Z,-6.82
2023-02-09T07:40:04.709Z,-6.85
2023-02-09T07:42:33.098Z,-6.91
2023-02-09T07:45:03.167Z,-6.95
2023-02-09T07:47:31.757Z,-7.01
2023-02-09T07:50:00.410Z,-7.07
2023-02-09T07:52:28.852Z,-7.06
2023-02-09T07:54:57.294Z,-7.06
2023-02-09T07:57:27.650Z,-7.16
2023-02-09T07:59:56.151Z,-7.27
2023-02-09T08:02:31.394Z,-7.36
2023-02-09T08:05:00.969Z,-7.57
2023-02-09T08:07:30.205Z,-7.71
2023-02-09T08:09:58.558Z,-7.75
2023-02-09T08:12:49.087Z,-7.75
2023-02-09T08:15:21.397Z,-7.71
2023-02-09T08:17:54.074Z,-7.61
2023-02-09T08:20:27.131Z,-7.47
2023-02-09T08:23:02.026Z,-7.31
2023-02-09T08:25:30.581Z,-7.20
2023-02-09T08:27:59.501Z,-7.15
2023-02-09T08:30:27.855Z,-7.15
2023-02-09T08:32:55.984Z,-7.14
2023-02-09T08:35:24.281Z,-7.17
2023-02-09T08:37:52.752Z,-7.19
2023-02-09T08:40:20.838Z,-7.17
2023-02-09T08:42:49.163Z,-7.11
2023-02-09T08:45:17.412Z,-7.07
2023-02-09T08:47:46.181Z,-7.08
2023-02-09T08:50:17.717Z,-7.00
2023-02-09T08:52:46.338Z,-6.86
2023-02-09T08:55:14.720Z,-6.79
2023-02-09T08:57:44.611Z,-6.71
2023-02-09T09:00:16.005Z,-6.59
2023-02-09T09:02:44.238Z,-6.51
2023-02-09T09:05:13.107Z,-6.40
2023-02-09T09:07:42.010Z,-6.34
2023-02-09T09:10:10.919Z,-6.31
2023-02-09T09:12:39.169Z,-6.33
2023-02-09T09:15:07.972Z,-6.36
2023-02-09T09:17:36.222Z,-6.28
2023-02-09T09:20:05.106Z,-6.17
2023-02-09T09:22:33.508Z,-6.05
2023-02-09T09:25:02.290Z,-5.92
2023-02-09T09:27:33.468Z,-5.77
2023-02-09T09:30:05.779Z,-5.64
2023-02-09T09:32:34.309Z,-5.51
2023-02-09T09:35:03.782Z,-5.34
2023-02-09T09:37:33.002Z,-5.16
2023-02-09T09:40:01.411Z,-5.07
2023-02-09T09:42:40.800Z,-4.99
2023-02-09T09:45:21.064Z,-4.84
2023-02-09T09:47:49.935Z,-4.68
2023-02-09T09:50:32.314Z,-4.50
2023-02-09T09:53:25.633Z,-4.35
2023-02-09T09:55:59.390Z,-4.27
2023-02-09T09:58:29.026Z,-4.16
2023-02-09T10:00:57.796Z,-4.07
2023-02-09T10:03:27.062Z,-3.96
2023-02-09T10:06:02.212Z,-3.83
2023-02-09T10:08:33.224Z,-3.72
2023-02-09T10:11:11.972Z,-3.67
2023-02-09T10:13:56.943Z,-3.54
2023-02-09T10:16:34.700Z,-3.39
2023-02-09T10:19:07.096Z,-3.28
2023-02-09T10:21:36.508Z,-3.16
2023-02-09T10:24:13.629Z,-3.03
2023-02-09T10:26:43.223Z,-2.86
2023-02-09T10:29:11.384Z,-2.72
2023-02-09T10:31:44.938Z,-2.61
2023-02-09T10:34:24.991Z,-2.53
2023-02-09T10:36:56.752Z,-2.50
2023-02-09T10:39:34.600Z,-2.38
2023-02-09T10:42:16.679Z,-2.27
2023-02-09T10:44:49.792Z,-2.28
2023-02-09T10:47:20.925Z,-2.24
2023-02-09T10:50:02.956Z,-2.20
2023-02-09T10:52:34.636Z,-2.14
2023-02-09T10:55:17.230Z,-2.12
2023-02-09T10:57:46.199Z,-2.08
2023-02-09T11:00:17.674Z,-2.09
2023-02-09T11:02:54.522Z,-2.13
2023-02-09T11:05:22.865Z,-2.17
2023-02-09T11:07:58.019Z,-2.08
2023-02-09T11:10:32.742Z,-2.07
2023-02-09T11:13:05.364Z,-2.12
2023-02-09T11:15:46.148Z,-2.18
2023-02-09T11:18:25.823Z,-2.20
2023-02-09T11:21:06.400Z,-2.13
2023-02-09T11:24:00.816Z,-2.02
2023-02-09T11:26:43.023Z,-1.94
2023-02-09T11:29:29.968Z,-1.89
2023-02-09T11:31:58.136Z,-1.91
2023-02-09T11:34:29.593Z,-1.88
2023-02-09T11:37:22.797Z,-1.84
2023-02-09T11:40:06.414Z,-1.81
2023-02-09T11:42:46.367Z,-1.82
2023-02-09T11:45:29.196Z,-1.78
2023-02-09T11:48:04.471Z,-1.72
2023-02-09T11:50:58.071Z,-1.68
2023-02-09T11:53:47.254Z,-1.58
2023-02-09T11:56:18.260Z,-1.58
2023-02-09T11:59:21.946Z,-1.64
2023-02-09T12:02:02.407Z,-1.66
2023-02-09T12:04:49.554Z,-1.68
2023-02-09T12:07:40.913Z,-1.60
2023-02-09T12:10:09.963Z,-1.50
2023-02-09T12:12:52.088Z,-1.42
2023-02-09T12:15:27.912Z,-1.32
2023-02-09T12:18:06.679Z,-1.23
2023-02-09T12:20:56.895Z,-1.09
2023-02-09T12:23:42.647Z,-0.98
2023-02-09T12:26:17.136Z,-0.91
2023-02-09T12:28:47.803Z,-0.92
2023-02-09T12:31:26.143Z,-0.87
2023-02-09T12:34:11.234Z,-0.82
2023-02-09T12:37:01.539Z,-0.75
2023-02-09T12:39:30.057Z,-0.69
2023-02-09T12:42:01.473Z,-0.69
2023-02-09T12:44:30.275Z,-0.66
2023-02-09T12:46:58.510Z,-0.60
2023-02-09T12:49:30.237Z,-0.57
2023-02-09T12:52:01.377Z,-0.57
2023-02-09T12:54:32.276Z,-0.53
2023-02-09T12:57:15.942Z,-0.50
2023-02-09T12:59:50.427Z,-0.48
2023-02-09T13:02:38.574Z,-0.49
2023-02-09T13:05:17.693Z,-0.51
2023-02-09T13:07:52.506Z,-0.53
2023-02-09T13:10:42.985Z,-0.53
2023-02-09T13:13:11.298Z,-0.55
2023-02-09T13:16:05.668Z,-0.62
2023-02-09T13:18:59.551Z,-0.76
2023-02-09T13:21:57.842Z,-0.88
2023-02-09T13:24:42.024Z,-0.98
2023-02-09T13:27:22.252Z,-1.05
2023-02-09T13:29:54.033Z,-1.08
2023-02-09T13:32:54.806Z,-1.10
2023-02-09T13:35:29.496Z,-1.11
2023-02-09T13:38:00.078Z,-1.11
2023-02-09T13:40:31.760Z,-1.09
2023-02-09T13:43:17.809Z,-1.12
2023-02-09T13:45:49.242Z,-1.16
2023-02-09T13:48:33.108Z,-1.22
2023-02-09T13:51:04.122Z,-1.28
2023-02-09T13:53:32.517Z,-1.29
2023-02-09T13:56:00.923Z,-1.33
2023-02-09T13:58:35.442Z,-1.38
2023-02-09T14:01:09.586Z,-1.44
2023-02-09T14:03:57.118Z,-1.46
2023-02-09T14:06:52.957Z,-1.48
2023-02-09T14:09:25.640Z,-1.50
2023-02-09T14:11:59.311Z,-1.53
2023-02-09T14:14:52.422Z,-1.61
2023-02-09T14:17:32.087Z,-1.69
2023-02-09T14:20:00.520Z,-1.72
2023-02-09T14:22:36.369Z,-1.76
2023-02-09T14:25:13.787Z,-1.79
2023-02-09T14:27:47.325Z,-1.82
2023-02-09T14:30:23.272Z,-1.88
2023-02-09T14:32:53.894Z,-1.95
2023-02-09T14:35:27.431Z,-2.00
2023-02-09T14:37:58.897Z,-2.07
2023-02-09T14:40:27.266Z,-2.13
2023-02-09T14:43:27.376Z,-2.18
2023-02-09T14:46:01.719Z,-2.25
2023-02-09T14:48:31.774Z,-2.31
2023-02-09T14:51:11.210Z,-2.37
2023-02-09T14:53:43.836Z,-2.41
2023-02-09T14:56:25.608Z,-2.46
2023-02-09T14:58:54.824Z,-2.50
2023-02-09T15:01:23.296Z,-2.53
2023-02-09T15:03:51.841Z,-2.56
2023-02-09T15:06:20.537Z,-2.57
2023-02-09T15:08:49.257Z,-2.62
2023-02-09T15:11:42.682Z,-2.69
2023-02-09T15:14:11.966Z,-2.77
2023-02-09T15:16:41.025Z,-2.85
2023-02-09T15:19:16.522Z,-2.92
2023-02-09T15:21:50.663Z,-2.98
2023-02-09T15:24:25.042Z,-3.06
2023-02-09T15:26:53.953Z,-3.14
2023-02-09T15:29:22.404Z,-3.21
2023-02-09T15:31:50.907Z,-3.29
2023-02-09T15:34:19.573Z,-3.38
2023-02-09T15:36:48.038Z,-3.43
2023-02-09T15:39:28.407Z,-3.45
2023-02-09T15:42:16.011Z,-3.51
2023-02-09T15:45:03.072Z,-3.59
2023-02-09T15:47:49.856Z,-3.72
2023-02-09T15:50:17.915Z,-3.84
2023-02-09T15:52:46.497Z,-3.96
2023-02-09T15:55:23.164Z,-4.06
2023-02-09T15:57:53.458Z,-4.13
2023-02-09T16:00:27.716Z,-4.19
2023-02-09T16:02:58.748Z,-4.24
2023-02-09T16:05:29.370Z,-4.28
2023-02-09T16:07:59.711Z,-4.32
2023-02-09T16:10:30.296Z,-4.36
2023-02-09T16:12:58.994Z,-4.44
2023-02-09T16:15:27.631Z,-4.51
2023-02-09T16:17:55.796Z,-4.60
2023-02-09T16:20:26.019Z,-4.64
2023-02-09T16:22:56.783Z,-4.70
2023-02-09T16:25:26.669Z,-4.79
2023-02-09T16:27:56.709Z,-4.86
2023-02-09T16:30:26.895Z,-4.93
2023-02-09T16:32:56.072Z,-4.99
2023-02-09T16:35:25.599Z,-5.04
2023-02-09T16:37:54.145Z,-5.10
2023-02-09T16:40:24.086Z,-5.14
2023-02-09T16:42:52.949Z,-5.18
2023-02-09T16:45:22.757Z,-5.23
2023-02-09T16:47:55.087Z,-5.28
2023-02-09T16:50:32.999Z,-5.27
2023-02-09T16:53:04.643Z,-5.24
2023-02-09T16:55:35.673Z,-5.22
2023-02-09T16:58:05.332Z,-5.26
2023-02-09T17:00:37.955Z,-5.32
2023-02-09T17:03:14.326Z,-5.36
2023-02-09T17:05:47.552Z,-5.42
2023-02-09T17:08:19.653Z,-5.50
2023-02-09T17:10:51.899Z,-5.56
2023-02-09T17:13:23.850Z,-5.61
2023-02-09T17:15:56.302Z,-5.68
2023-02-09T17:18:31.904Z,-5.74
2023-02-09T17:21:03.512Z,-5.79
2023-02-09T17:23:31.805Z,-5.84
2023-02-09T17:26:00.468Z,-5.86
2023-02-09T17:28:30.060Z,-5.85
2023-02-09T17:31:01.450Z,-5.85
2023-02-09T17:33:35.875Z,-5.87
2023-02-09T17:36:25.363Z,-5.87
2023-02-09T17:38:53.517Z,-5.86
2023-02-09T17:41:37.127Z,-5.87
2023-02-09T17:44:22.316Z,-5.89
2023-02-09T17:46:52.269Z,-5.92
2023-02-09T17:49:20.446Z,-5.95
2023-02-09T17:51:49.519Z,-5.99
2023-02-09T17:54:20.223Z,-6.04
2023-02-09T17:56:48.361Z,-6.07
2023-02-09T17:59:19.951Z,-6.07
2023-02-09T18:01:55.333Z,-6.09
2023-02-09T18:04:27.017Z,-6.14
2023-02-09T18:06:57.502Z,-6.17
2023-02-09T18:09:26.129Z,-6.18
2023-02-09T18:12:04.599Z,-6.17
2023-02-09T18:14:33.934Z,-6.21
2023-02-09T18:17:02.689Z,-6.26
2023-02-09T18:19:31.538Z,-6.28
2023-02-09T18:22:01.753Z,-6.32
2023-02-09T18:24:34.067Z,-6.35
2023-02-09T18:27:05.726Z,-6.40
2023-02-09T18:29:33.981Z,-6.43
2023-02-09T18:32:03.199Z,-6.46
2023-02-09T18:34:31.418Z,-6.49
2023-02-09T18:36:59.445Z,-6.51
2023-02-09T18:39:27.627Z,-6.55
2023-02-09T18:41:56.167Z,-6.58
2023-02-09T18:44:29.337Z,-6.63
2023-02-09T18:47:00.725Z,-6.69
2023-02-09T18:49:29.585Z,-6.75
2023-02-09T18:51:59.016Z,-6.79
2023-02-09T18:54:28.993Z,-6.82
2023-02-09T18:56:57.321Z,-6.83
2023-02-09T18:59:32.550Z,-6.85
2023-02-09T19:02:00.801Z,-6.87
2023-02-09T19:04:29.258Z,-6.88
2023-02-09T19:06:57.352Z,-6.92
2023-02-09T19:09:25.786Z,-6.94
2023-02-09T19:11:53.649Z,-6.96
2023-02-09T19:14:40.031Z,-6.95
2023-02-09T19:17:19.979Z,-6.94
2023-02-09T19:19:49.061Z,-6.93
2023-02-09T19:22:21.496Z,-6.90
2023-02-09T19:24:52.997Z,-6.88
2023-02-09T19:27:21.450Z,-6.87
2023-02-09T19:29:53.515Z,-6.86
2023-02-09T19:32:22.035Z,-6.84
2023-02-09T19:34:50.068Z,-6.85
2023-02-09T19:37:20.996Z,-6.86
2023-02-09T19:40:05.116Z,-6.88
2023-02-09T19:42:33.597Z,-6.87
2023-02-09T19:45:01.665Z,-6.87
2023-02-09T19:47:29.886Z,-6.89
2023-02-09T19:49:58.793Z,-6.90
2023-02-09T19:52:28.041Z,-6.92
2023-02-09T19:54:57.772Z,-6.93
2023-02-09T19:57:26.178Z,-6.94
2023-02-09T19:59:54.377Z,-6.97
2023-02-09T20:02:22.304Z,-7.04
2023-02-09T20:04:50.593Z,-7.09
2023-02-09T20:07:18.676Z,-7.12
2023-02-09T20:09:46.932Z,-7.17
2023-02-09T20:12:15.210Z,-7.21
2023-02-09T20:14:43.142Z,-7.23
2023-02-09T20:17:11.402Z,-7.25
2023-02-09T20:19:39.580Z,-7.30
2023-02-09T20:22:07.534Z,-7.37
2023-02-09T20:24:35.987Z,-7.46
2023-02-09T20:27:04.505Z,-7.51
2023-02-09T20:29:32.399Z,-7.54
2023-02-09T20:32:01.753Z,-7.54
2023-02-09T20:34:30.023Z,-7.60
2023-02-09T20:36:58.055Z,-7.65
2023-02-09T20:39:26.058Z,-7.69
2023-02-09T20:42:16.617Z,-7.68
2023-02-09T20:45:03.149Z,-7.68
2023-02-09T20:47:31.450Z,-7.71
2023-02-09T20:50:00.417Z,-7.73
2023-02-09T20:52:29.298Z,-7.73
2023-02-09T20:54:57.536Z,-7.74
2023-02-09T20:57:29.675Z,-7.74
2023-02-09T20:59:59.313Z,-7.74
2023-02-09T21:02:28.213Z,-7.77
2023-02-09T21:04:57.441Z,-7.79
2023-02-09T21:07:25.643Z,-7.82
2023-02-09T21:09:54.961Z,-7.84
2023-02-09T21:12:23.093Z,-7.86
2023-02-09T21:14:51.470Z,-7.88
2023-02-09T21:17:20.924Z,-7.88
2023-02-09T21:19:48.956Z,-7.90
2023-02-09T21:22:17.514Z,-7.92
2023-02-09T21:24:45.493Z,-7.94
2023-02-09T21:27:14.262Z,-7.95
2023-02-09T21:29:42.485Z,-7.97
2023-02-09T21:32:11.193Z,-7.98
2023-02-09T21:34:39.258Z,-8.06
2023-02-09T21:37:10.241Z,-8.18
2023-02-09T21:39:39.096Z,-8.19
2023-02-09T21:42:25.928Z,-8.20
2023-02-09T21:44:56.986Z,-8.21
2023-02-09T21:47:36.636Z,-8.24
2023-02-09T21:50:07.406Z,-8.25
2023-02-09T21:52:35.370Z,-8.28
2023-02-09T21:55:04.802Z,-8.32
2023-02-09T21:57:32.820Z,-8.34
2023-02-09T22:00:05.481Z,-8.35
2023-02-09T22:02:33.986Z,-8.38
2023-02-09T22:05:02.609Z,-8.40
2023-02-09T22:07:31.450Z,-8.40
2023-02-09T22:09:59.369Z,-8.42
2023-02-09T22:12:27.564Z,-8.43
2023-02-09T22:14:55.590Z,-8.46
2023-02-09T22:17:23.623Z,-8.49
2023-02-09T22:19:51.513Z,-8.51
2023-02-09T22:22:19.462Z,-8.54
2023-02-09T22:24:47.543Z,-8.56
2023-02-09T22:27:15.618Z,-8.60
2023-02-09T22:29:44.492Z,-8.63
2023-02-09T22:32:12.499Z,-8.66
2023-02-09T22:34:40.555Z,-8.70
2023-02-09T22:37:08.487Z,-8.74
2023-02-09T22:39:36.464Z,-8.75
2023-02-09T22:42:04.743Z,-8.77
2023-02-09T22:44:33.709Z,-8.81
2023-02-09T22:47:01.615Z,-9.00
2023-02-09T22:49:29.611Z,-9.11
2023-02-09T22:51:57.555Z,-9.10
2023-02-09T22:54:25.469Z,-9.10
2023-02-09T22:56:53.456Z,-9.10
2023-02-09T22:59:21.603Z,-9.13
2023-02-09T23:01:49.730Z,-9.16
2023-02-09T23:04:17.884Z,-9.19
2023-02-09T23:06:46.499Z,-9.21
2023-02-09T23:09:15.538Z,-9.23
2023-02-09T23:11:44.462Z,-9.24
2023-02-09T23:14:13.727Z,-9.24
2023-02-09T23:16:43.751Z,-9.25
2023-02-09T23:19:14.648Z,-9.26
2023-02-09T23:21:44.973Z,-9.28
2023-02-09T23:24:16.077Z,-9.28
2023-02-09T23:26:44.315Z,-9.31
2023-02-09T23:29:14.278Z,-9.36
2023-02-09T23:31:43.422Z,-9.43
2023-02-09T23:34:20.116Z,-9.47
2023-02-09T23:36:48.549Z,-9.51
2023-02-09T23:39:20.016Z,-9.53
2023-02-09T23:41:48.428Z,-9.52
2023-02-09T23:44:16.373Z,-9.52
2023-02-09T23:46:44.924Z,-9.50
2023-02-09T23:49:13.030Z,-9.47
2023-02-09T23:51:41.079Z,-9.46
2023-02-09T23:54:10.791Z,-9.45
2023-02-09T23:56:39.956Z,-9.56
2023-02-09T23:59:13.133Z,-9.67
